Time;durP1;ratioP1;P1;durP2;ratioP2;P2;SDS_P1;SDS_P2;PMS_P1;PMS_P2;Temp;Humidity;BMP_temperature;BMP_pressure;BME280_temperature;BME280_humidity;BME280_pressure;Samples;Min_cycle;Max_cycle;Signal;HPM_P1;HPM_P2
2022/12/11 00:01:12;;;;;;;47.88;20.95;;;;;;;;;;4986925;28;20026;-83
2022/12/11 00:03:55;;;;;;;49.72;18.77;;;;;;;;;;5005252;28;20046;-88
2022/12/11 00:06:42;;;;;;;;;;;;;;;;;;;;;
2022/12/11 00:09:18;;;;;;;44.45;18.38;;;;;;;;;;4993555;28;20074;-85
2022/12/11 00:12:06;;;;;;;46.88;19.42;;;;;;;;;;4994289;28;20045;-83
2022/12/11 00:14:32;;;;;;;47.20;17.02;;;;;;;;;;5004016;28;20036;-81
2022/12/11 00:17:04;;;;;;;42.97;17.45;;;;;;;;;;5006142;28;20049;-82
2022/12/11 00:19:58;;;;;;;47.83;18.40;;;;;;;;;;5004422;28;20053;-82
2022/12/11 00:22:31;;;;;;;46.38;17.60;;;;;;;;;;5018712;28;20038;-84
2022/12/11 00:24:57;;;;;;;44.72;17.85;;;;;;;;;;5001598;28;20463;-83
2022/12/11 00:27:23;;;;;;;45.45;17.35;;;;;;;;;;5012154;28;20040;-81
2022/12/11 00:29:50;;;;;;;48.72;17.77;;;;;;;;;;4983920;28;20093;-85
2022/12/11 00:32:16;;;;;;;54.15;20.08;;;;;;;;;;4993276;28;20037;-82
2022/12/11 00:34:42;;;;;;;53.83;19.25;;;;;;;;;;5001522;28;20333;-85
2022/12/11 00:37:08;;;;;;;52.10;20.10;;;;;;;;;;4990435;28;20040;-82
2022/12/11 00:39:34;;;;;;;53.67;20.55;;;;;;;;;;5004437;28;20045;-80
2022/12/11 00:42:00;;;;;;;56.58;19.90;;;;;;;;;;4987396;28;20403;-82
2022/12/11 00:44:26;;;;;;;54.15;20.60;;;;;;;;;;4989993;28;20033;-81
2022/12/11 00:46:55;;;;;;;53.15;20.08;;;;;;;;;;4992835;28;20086;-85
2022/12/11 00:49:22;;;;;;;49.05;18.77;;;;;;;;;;5002182;28;20521;-81
2022/12/11 00:51:48;;;;;;;52.03;18.58;;;;;;;;;;4996002;28;20029;-81
2022/12/11 00:54:34;;;;;;;44.92;17.27;;;;;;;;;;5016836;28;20049;-81
2022/12/11 00:57:02;;;;;;;45.80;18.02;;;;;;;;;;4998219;28;20109;-81
2022/12/11 00:59:31;;;;;;;46.17;18.42;;;;;;;;;;5016715;28;20042;-83
2022/12/11 01:02:18;;;;;;;52.92;19.17;;;;;;;;;;4980759;28;20045;-84
2022/12/11 01:04:47;;;;;;;48.35;18.92;;;;;;;;;;4985748;28;20050;-86
2022/12/11 01:07:15;;;;;;;56.03;20.50;;;;;;;;;;5008024;28;20509;-86
2022/12/11 01:12:28;;;;;;;54.55;19.15;;;;;;;;;;5018777;28;20068;-82
2022/12/11 01:15:15;;;;;;;46.70;17.52;;;;;;;;;;5015549;28;20022;-84
2022/12/11 01:17:54;;;;;;;48.95;18.55;;;;;;;;;;4997772;28;20033;-83
2022/12/11 01:20:29;;;;;;;61.95;20.83;;;;;;;;;;5004480;28;20098;-82
2022/12/11 01:23:02;;;;;;;57.30;19.92;;;;;;;;;;5022096;28;20125;-86
2022/12/11 01:25:36;;;;;;;58.28;21.10;;;;;;;;;;5003824;28;20043;-84
2022/12/11 01:31:22;;;;;;;54.00;18.42;;;;;;;;;;5021582;28;20645;-82
2022/12/11 01:33:57;;;;;;;50.38;18.45;;;;;;;;;;5018772;28;20095;-83
2022/12/11 01:39:55;;;;;;;62.83;19.75;;;;;;;;;;5018533;28;20033;-83
2022/12/11 01:42:50;;;;;;;49.70;19.38;;;;;;;;;;4997897;28;20026;-81
2022/12/11 01:45:40;;;;;;;57.80;20.52;;;;;;;;;;4995788;28;20099;-81
2022/12/11 01:51:26;;;;;;;59.67;20.98;;;;;;;;;;5008481;28;20037;-82
2022/12/11 01:53:56;;;;;;;57.13;20.98;;;;;;;;;;5005450;28;20022;-82
2022/12/11 01:56:22;;;;;;;52.45;18.92;;;;;;;;;;5001759;28;20026;-82
2022/12/11 01:58:54;;;;;;;55.63;20.45;;;;;;;;;;4994776;28;20030;-82
2022/12/11 02:01:32;;;;;;;54.58;20.10;;;;;;;;;;4997110;28;20022;-83
2022/12/11 02:03:58;;;;;;;55.17;18.58;;;;;;;;;;4983255;28;20114;-83
2022/12/11 02:06:38;;;;;;;56.60;19.25;;;;;;;;;;5016074;28;20331;-81
2022/12/11 02:09:10;;;;;;;54.45;18.52;;;;;;;;;;4993887;28;20038;-80
2022/12/11 02:11:55;;;;;;;55.25;18.58;;;;;;;;;;4994225;28;20041;-82
2022/12/11 02:14:36;;;;;;;52.13;19.23;;;;;;;;;;5014160;28;20026;-85
2022/12/11 02:17:17;;;;;;;54.97;18.73;;;;;;;;;;4994473;28;20046;-81
2022/12/11 02:19:51;;;;;;;48.97;18.02;;;;;;;;;;4995964;28;20026;-80
2022/12/11 02:22:46;;;;;;;44.85;16.25;;;-0.30;99.90;;;;;;4999488;28;20034;-80
2022/12/11 02:25:15;;;;;;;49.00;19.08;;;;;;;;;;4990836;28;20064;-82
2022/12/11 02:27:55;;;;;;;49.38;18.38;;;-0.50;99.90;;;;;;5001414;28;20109;-84
2022/12/11 02:30:21;;;;;;;49.30;17.38;;;;;;;;;;5000829;28;20026;-82
2022/12/11 02:32:55;;;;;;;45.17;17.55;;;;;;;;;;5017390;28;20034;-81
2022/12/11 02:35:26;;;;;;;46.25;17.02;;;;;;;;;;5018548;28;20010;-83
2022/12/11 02:38:12;;;;;;;;;;;-0.50;99.90;;;;;;5019464;28;20029;-83
2022/12/11 02:40:51;;;;;;;49.42;15.70;;;;;;;;;;4998340;28;19996;-82
2022/12/11 02:43:39;;;;;;;36.80;14.60;;;;;;;;;;4997123;28;20041;-81
2022/12/11 02:46:29;;;;;;;41.55;15.27;;;;;;;;;;5014879;28;20045;-81
2022/12/11 02:49:14;;;;;;;42.53;16.02;;;;;;;;;;5013706;28;20058;-84
2022/12/11 02:52:03;;;;;;;40.10;15.68;;;;;;;;;;4995976;28;20030;-83
2022/12/11 02:58:07;;;;;;;43.60;16.38;;;;;;;;;;4993840;28;20006;-85
2022/12/11 03:01:08;;;;;;;49.90;18.08;;;;;;;;;;5005725;28;20041;-81
2022/12/11 03:04:09;;;;;;;52.65;20.08;;;;;;;;;;5003515;28;20133;-85
2022/12/11 03:07:10;;;;;;;49.50;18.67;;;;;;;;;;4907230;29;20071;-82
2022/12/11 03:09:58;;;;;;;46.80;17.05;;;;;;;;;;4900476;29;20040;-83
2022/12/11 03:12:31;;;;;;;48.25;18.27;;;;;;;;;;4902769;29;22075;-81
2022/12/11 03:15:01;;;;;;;41.20;15.35;;;;;;;;;;4913370;29;20032;-83
2022/12/11 03:17:38;;;;;;;46.13;16.53;;;;;;;;;;5013509;28;20041;-85
2022/12/11 03:20:17;;;;;;;42.83;16.77;;;;;;;;;;4998926;28;20085;-85
2022/12/11 03:22:45;;;;;;;43.38;16.75;;;;;;;;;;5015411;28;20030;-83
2022/12/11 03:25:14;;;;;;;45.55;17.60;;;;;;;;;;5017338;28;20034;-88
2022/12/11 03:28:24;;;;;;;47.75;17.17;;;;;;;;;;5001569;28;20037;-85
2022/12/11 03:34:15;;;;;;;39.05;15.68;;;;;;;;;;4942870;29;20039;-84
2022/12/11 03:36:46;;;;;;;36.40;14.57;;;;;;;;;;4982879;28;20038;-83
2022/12/11 03:39:19;;;;;;;38.97;13.73;;;;;;;;;;5022475;28;20049;-81
2022/12/11 03:41:49;;;;;;;39.50;14.07;;;;;;;;;;5001061;28;20048;-83
2022/12/11 03:44:26;;;;;;;41.97;15.25;;;;;;;;;;5021065;28;20038;-82
2022/12/11 03:49:58;;;;;;;39.75;15.70;;;;;;;;;;4999284;28;20018;-80
2022/12/11 03:52:26;;;;;;;38.47;15.05;;;;;;;;;;5003236;28;20022;-83
2022/12/11 03:54:52;;;;;;;44.38;15.57;;;;;;;;;;5025467;28;20045;-83
2022/12/11 03:57:20;;;;;;;28.67;12.48;;;;;;;;;;5005058;28;20025;-81
2022/12/11 03:59:47;;;;;;;39.97;13.38;;;;;;;;;;5020820;28;20049;-84
2022/12/11 04:02:13;;;;;;;37.42;13.48;;;;;;;;;;5016356;28;20038;-82
2022/12/11 04:04:40;;;;;;;33.03;13.27;;;;;;;;;;5003466;28;20028;-84
2022/12/11 04:07:10;;;;;;;36.83;13.15;;;;;;;;;;5028631;28;20030;-83
2022/12/11 04:09:36;;;;;;;35.65;13.20;;;;;;;;;;5004880;28;20378;-85
2022/12/11 04:12:03;;;;;;;33.88;13.00;;;;;;;;;;5022262;28;20113;-85
2022/12/11 04:24:13;;;;;;;36.47;13.60;;;;;;;;;;5022865;28;20025;-79
2022/12/11 04:25:28;;;;;;;33.88;12.07;;;;;;;;;;5001515;28;20134;-86
2022/12/11 04:27:54;;;;;;;35.95;13.48;;;;;;;;;;5014526;28;20028;-81
2022/12/11 04:30:22;;;;;;;37.08;13.13;;;;;;;;;;5019247;28;20033;-81
2022/12/11 04:32:56;;;;;;;29.85;11.85;;;;;;;;;;5001749;28;20034;-81
2022/12/11 04:35:27;;;;;;;31.67;11.88;;;;;;;;;;5001586;28;20046;-82
2022/12/11 04:37:57;;;;;;;35.33;13.07;;;;;;;;;;4998006;28;20033;-81
2022/12/11 04:40:25;;;;;;;33.50;12.95;;;;;;;;;;5013888;28;20034;-80
2022/12/11 04:43:09;;;;;;;36.42;12.75;;;;;;;;;;5011840;28;20033;-81
2022/12/11 04:45:41;;;;;;;34.00;12.57;;;;;;;;;;4993257;28;21141;-80
2022/12/11 04:48:25;;;;;;;33.15;13.63;;;;;;;;;;5013302;28;20026;-86
2022/12/11 04:51:00;;;;;;;29.67;12.02;;;;;;;;;;5012320;28;20329;-79
2022/12/11 04:53:27;;;;;;;31.65;12.25;;;;;;;;;;4995151;28;20044;-82
2022/12/11 04:55:56;;;;;;;30.88;11.20;;;;;;;;;;5001459;28;20044;-84
2022/12/11 04:58:23;;;;;;;31.02;12.88;;;;;;;;;;4991809;28;20171;-83
2022/12/11 05:00:51;;;;;;;36.80;13.50;;;;;;;;;;4999437;28;20049;-81
2022/12/11 05:03:25;;;;;;;31.35;12.02;;;;;;;;;;5015574;28;20030;-82
2022/12/11 05:06:17;;;;;;;34.30;12.20;;;;;;;;;;4995824;28;20033;-83
2022/12/11 05:08:59;;;;;;;32.95;12.40;;;;;;;;;;5002320;28;20056;-84
2022/12/11 05:11:41;;;;;;;32.00;12.43;;;;;;;;;;5009145;28;20049;-83
2022/12/11 05:14:43;;;;;;;31.95;12.95;;;;;;;;;;5000529;28;20034;-83
2022/12/11 05:24:09;;;;;;;;;;;;;;;;;;;;;
2022/12/11 05:33:05;;;;;;;32.22;12.50;;;;;;;;;;4927522;28;20114;-81
2022/12/11 05:35:46;;;;;;;29.77;11.23;;;;;;;;;;4968327;28;20037;-81
2022/12/11 05:38:15;;;;;;;29.20;12.77;;;;;;;;;;4991601;28;20038;-83
2022/12/11 05:40:41;;;;;;;26.10;10.65;;;;;;;;;;4996065;28;20262;-81
2022/12/11 05:43:08;;;;;;;28.65;11.75;;;;;;;;;;4999134;28;20037;-83
2022/12/11 05:45:34;;;;;;;30.08;11.32;;;;;;;;;;5001779;28;20041;-84
2022/12/11 05:48:03;;;;;;;29.98;12.43;;;;;;;;;;5005556;28;20033;-83
2022/12/11 05:50:34;;;;;;;30.73;12.60;;;;;;;;;;5023200;28;20045;-81
2022/12/11 05:53:06;;;;;;;29.30;12.10;;;;;;;;;;5001099;28;20045;-81
2022/12/11 05:55:37;;;;;;;29.05;12.23;;;;;;;;;;5017559;28;20025;-81
2022/12/11 05:58:04;;;;;;;27.13;11.38;;;;;;;;;;5000556;28;20040;-84
2022/12/11 06:00:32;;;;;;;31.30;11.95;;;;;;;;;;5007269;28;20072;-84
2022/12/11 06:03:07;;;;;;;31.50;11.77;;;;;;;;;;5021572;28;20111;-80
2022/12/11 06:05:45;;;;;;;24.77;9.95;;;;;;;;;;4995260;28;20106;-82
2022/12/11 06:08:11;;;;;;;25.17;11.10;;;;;;;;;;5019192;28;20391;-81
2022/12/11 06:10:48;;;;;;;;;;;;;;;;;;;;;
2022/12/11 06:13:19;;;;;;;29.02;10.60;;;;;;;;;;5017116;28;20472;-82
2022/12/11 06:16:07;;;;;;;31.70;11.48;;;;;;;;;;5018651;28;20026;-84
2022/12/11 06:18:45;;;;;;;28.65;11.07;;;;;;;;;;5020261;28;20037;-81
2022/12/11 06:21:24;;;;;;;29.08;11.13;;;;;;;;;;4997038;28;20049;-83
2022/12/11 06:24:39;;;;;;;;;;;;;;;;;;;;;
2022/12/11 06:29:50;;;;;;;34.80;11.88;;;;;;;;;;5013653;28;20056;-83
2022/12/11 06:32:16;;;;;;;32.83;13.10;;;;;;;;;;5000384;28;20029;-82
2022/12/11 06:34:45;;;;;;;35.45;13.00;;;;;;;;;;4997404;28;20057;-81
2022/12/11 06:37:11;;;;;;;35.42;11.95;;;;;;;;;;4999027;28;20030;-81
2022/12/11 06:39:37;;;;;;;33.60;12.95;;;;;;;;;;5001980;28;20037;-81
2022/12/11 06:42:06;;;;;;;30.67;13.25;;;;;;;;;;5001105;28;20057;-84
2022/12/11 06:44:32;;;;;;;34.72;12.60;;;;;;;;;;5000832;28;20061;-83
2022/12/11 06:47:04;;;;;;;36.40;13.55;;;;;;;;;;5002941;28;20030;-80
2022/12/11 06:49:30;;;;;;;34.70;12.60;;;;;;;;;;4988371;28;20145;-82
2022/12/11 06:52:05;;;;;;;33.13;12.63;;;;;;;;;;5003003;28;20058;-81
2022/12/11 06:54:42;;;;;;;34.28;12.45;;;;;;;;;;4988328;28;20041;-83
2022/12/11 06:57:10;;;;;;;32.58;12.40;;;;;;;;;;4994724;28;20156;-79
2022/12/11 06:59:42;;;;;;;31.35;11.38;;;;;;;;;;4988700;28;20144;-82
2022/12/11 07:09:29;;;;;;;33.45;10.75;;;;;;;;;;5005493;28;20057;-85
2022/12/11 07:11:43;;;;;;;30.30;11.60;;;;;;;;;;4917278;29;20162;-81
2022/12/11 07:14:12;;;;;;;28.80;10.30;;;;;;;;;;4934547;28;20055;-83
2022/12/11 07:16:44;;;;;;;29.52;11.40;;;;;;;;;;5004931;28;20022;-81
2022/12/11 07:19:28;;;;;;;27.40;11.35;;;;;;;;;;5005185;28;20127;-82
2022/12/11 07:21:54;;;;;;;28.10;10.88;;;;;;;;;;4993468;28;20027;-80
2022/12/11 07:24:44;;;;;;;30.40;10.82;;;;;;;;;;5004595;28;20030;-81
2022/12/11 07:27:52;;;;;;;;;;;;;;;;;;;;;
2022/12/11 07:38:30;;;;;;;28.17;10.30;;;0.30;99.90;;;;;;4849941;29;20108;-81
2022/12/11 07:41:32;;;;;;;;;;;;;;;;;;;;;
2022/12/11 07:44:14;;;;;;;29.73;11.00;;;;;;;;;;4958626;28;20099;-81
2022/12/11 07:50:01;;;;;;;28.17;10.75;;;;;;;;;;4879778;29;20030;-83
2022/12/11 07:56:09;;;;;;;30.15;10.90;;;;;;;;;;5026136;28;20045;-83
2022/12/11 07:59:06;;;;;;;;;;;;;;;;;;;;;
2022/12/11 08:08:03;;;;;;;36.72;11.85;;;0.50;99.90;;;;;;4924493;29;20592;-82
2022/12/11 08:19:48;;;;;;;31.88;12.45;;;0.40;99.90;;;;;;4998081;23;20062;-84
2022/12/11 08:22:14;;;;;;;29.58;12.55;;;;;;;;;;4985376;28;20041;-81
2022/12/11 08:24:40;;;;;;;32.42;11.43;;;;;;;;;;4987337;28;20069;-84
2022/12/11 08:27:06;;;;;;;30.00;11.13;;;;;;;;;;4975693;28;20039;-81
2022/12/11 08:29:32;;;;;;;32.22;11.88;;;;;;;;;;4974722;28;20027;-82
2022/12/11 08:31:58;;;;;;;25.38;11.70;;;;;;;;;;4984586;28;20121;-85
2022/12/11 08:34:24;;;;;;;36.00;11.77;;;;;;;;;;4983915;28;20065;-83
2022/12/11 08:36:50;;;;;;;32.90;12.07;;;;;;;;;;4992563;28;20030;-81
2022/12/11 08:39:16;;;;;;;31.13;11.57;;;;;;;;;;4995280;28;20056;-78
2022/12/11 08:41:42;;;;;;;33.58;11.90;;;;;;;;;;4996331;28;20452;-81
2022/12/11 08:44:11;;;;;;;37.78;14.82;;;0.30;99.90;;;;;;4986614;28;20099;-79
2022/12/11 08:46:37;;;;;;;28.75;11.43;;;;;;;;;;4972954;28;20034;-78
2022/12/11 08:49:03;;;;;;;35.42;13.20;;;;;;;;;;4974491;28;20042;-81
2022/12/11 08:51:30;;;;;;;29.40;10.95;;;;;;;;;;4978770;28;20498;-81
2022/12/11 08:54:00;;;;;;;30.90;11.20;;;0.60;99.90;;;;;;4970689;28;20018;-82
2022/12/11 08:56:26;;;;;;;32.57;11.27;;;;;;;;;;4975472;28;20487;-79
2022/12/11 08:58:52;;;;;;;28.88;10.82;;;;;;;;;;4981812;28;20050;-81
2022/12/11 09:01:28;;;;;;;25.20;10.77;;;0.60;99.90;;;;;;4979341;28;20466;-84
2022/12/11 09:03:55;;;;;;;28.83;10.65;;;0.60;99.90;;;;;;4967551;28;20037;-81
2022/12/11 09:06:24;;;;;;;29.15;11.45;;;0.70;99.90;;;;;;4984376;28;20081;-79
2022/12/11 09:08:50;;;;;;;27.02;11.20;;;0.70;99.90;;;;;;4965814;28;20050;-80
2022/12/11 09:11:20;;;;;;;28.90;11.45;;;0.70;99.90;;;;;;4978615;28;20037;-78
2022/12/11 09:13:46;;;;;;;31.48;12.07;;;;;;;;;;4975117;28;20041;-81
2022/12/11 10:58:51;;;;;;;23.30;10.63;;;1.00;99.90;;;;;;5090239;23;20089;-81
2022/12/11 11:01:30;;;;;;;28.92;11.25;;;0.90;99.90;;;;;;4960943;28;20039;-84
2022/12/11 11:04:25;;;;;;;30.05;12.10;;;0.90;99.90;;;;;;4987795;28;20031;-83
2022/12/11 11:07:26;;;;;;;26.15;10.55;;;0.80;99.90;;;;;;4970467;28;20058;-81
2022/12/11 11:10:36;;;;;;;31.88;12.38;;;0.90;99.90;;;;;;4944639;28;20034;-82
2022/12/11 11:13:13;;;;;;;30.17;11.15;;;0.90;99.90;;;;;;4998741;28;20589;-83
2022/12/11 11:15:39;;;;;;;27.13;11.35;;;;;;;;;;4977821;28;20031;-80
2022/12/11 11:18:31;;;;;;;26.55;10.80;;;0.70;99.90;;;;;;4976881;28;20391;-79
2022/12/11 11:20:57;;;;;;;31.88;11.88;;;0.90;99.90;;;;;;4979690;28;20062;-80
2022/12/11 11:23:24;;;;;;;27.73;10.60;;;1.10;99.90;;;;;;4976421;28;20038;-81
2022/12/11 11:25:58;;;;;;;27.50;11.60;;;1.20;99.90;;;;;;4979006;28;20040;-83
2022/12/11 11:28:25;;;;;;;25.92;10.63;;;;;;;;;;4978559;28;20018;-81
2022/12/11 11:37:04;;;;;;;29.45;12.52;;;;;;;;;;4968397;28;20047;-83
2022/12/11 11:42:52;;;;;;;37.83;17.35;;;;;;;;;;4949333;29;20034;-83
2022/12/11 11:45:27;;;;;;;32.30;13.57;;;;;;;;;;4964055;28;20045;-82
2022/12/11 11:48:00;;;;;;;28.95;12.30;;;;;;;;;;4960946;28;20027;-82
2022/12/11 11:50:32;;;;;;;29.55;11.07;;;;;;;;;;4966018;28;20034;-83
2022/12/11 11:53:14;;;;;;;28.63;10.80;;;;;;;;;;4971053;28;20027;-82
2022/12/11 11:55:41;;;;;;;26.88;10.68;;;;;;;;;;4948508;29;20067;-82
2022/12/11 11:58:12;;;;;;;30.70;12.73;;;;;;;;;;4967899;28;20430;-82
2022/12/11 12:00:39;;;;;;;24.15;10.15;;;;;;;;;;4966955;28;20031;-82
2022/12/11 12:03:28;;;;;;;23.00;9.93;;;1.60;99.90;;;;;;4965846;28;20035;-84
2022/12/11 12:06:04;;;;;;;24.67;9.73;;;;;;;;;;4969871;28;20031;-81
2022/12/11 12:08:39;;;;;;;29.10;12.57;;;;;;;;;;4966956;28;20050;-84
2022/12/11 12:11:06;;;;;;;30.92;12.75;;;;;;;;;;4966925;28;21044;-87
2022/12/11 12:13:44;;;;;;;27.67;11.48;;;;;;;;;;4959244;28;20035;-84
2022/12/11 12:16:17;;;;;;;26.75;10.85;;;;;;;;;;4968843;28;20030;-83
2022/12/11 12:19:11;;;;;;;27.50;11.43;;;;;;;;;;4972275;28;20701;-87
2022/12/11 12:21:38;;;;;;;28.30;11.13;;;;;;;;;;4948276;29;20126;-85
2022/12/11 12:24:13;;;;;;;27.00;10.98;;;;;;;;;;4958057;28;20050;-84
2022/12/11 12:26:55;;;;;;;31.92;13.63;;;;;;;;;;4967968;28;20183;-86
2022/12/11 12:29:30;;;;;;;26.65;11.55;;;;;;;;;;4970797;28;20031;-88
2022/12/11 12:32:15;;;;;;;29.20;12.25;;;;;;;;;;4970661;28;20027;-84
2022/12/11 12:34:44;;;;;;;28.25;11.43;;;;;;;;;;4975219;28;20047;-87
2022/12/11 12:37:18;;;;;;;27.25;10.70;;;;;;;;;;4972659;28;20098;-88
2022/12/11 12:39:51;;;;;;;27.50;12.15;;;;;;;;;;4972664;28;20098;-84
2022/12/11 12:42:26;;;;;;;26.42;11.43;;;;;;;;;;4969294;28;20019;-86
2022/12/11 12:45:12;;;;;;;27.13;11.82;;;;;;;;;;4971332;28;20063;-85
2022/12/11 12:47:40;;;;;;;24.98;11.18;;;;;;;;;;4947601;28;20039;-84
2022/12/11 12:50:10;;;;;;;29.25;12.35;;;;;;;;;;4972001;28;20173;-84
2022/12/11 12:52:40;;;;;;;29.27;11.38;;;;;;;;;;4968401;28;20027;-86
2022/12/11 12:55:12;;;;;;;23.58;11.30;;;;;;;;;;4972581;28;20046;-84
2022/12/11 12:57:41;;;;;;;29.63;11.50;;;;;;;;;;4971493;28;20031;-83
2022/12/11 13:00:09;;;;;;;25.67;10.38;;;;;;;;;;4966219;28;20027;-85
2022/12/11 13:02:49;;;;;;;28.00;11.50;;;;;;;;;;4951045;29;20171;-84
2022/12/11 13:05:20;;;;;;;26.67;11.68;;;;;;;;;;4968951;28;20121;-86
2022/12/11 13:08:01;;;;;;;26.38;11.18;;;;;;;;;;4967499;28;20059;-83
2022/12/11 13:10:27;;;;;;;27.25;10.80;;;;;;;;;;4970753;28;20036;-89
2022/12/11 13:12:54;;;;;;;28.33;11.10;;;;;;;;;;4970891;28;20038;-85
2022/12/11 13:15:31;;;;;;;27.25;10.80;;;;;;;;;;4974986;28;20031;-84
2022/12/11 13:17:59;;;;;;;25.60;10.27;;;;;;;;;;4959679;29;20098;-84
2022/12/11 13:20:26;;;;;;;26.35;11.88;;;;;;;;;;4962029;28;20039;-86
2022/12/11 13:23:08;;;;;;;24.83;10.43;;;;;;;;;;4979798;28;20035;-85
2022/12/11 13:25:47;;;;;;;24.92;10.90;;;;;;;;;;4975469;28;20038;-85
2022/12/11 13:28:28;;;;;;;24.33;10.13;;;;;;;;;;4968748;28;20035;-87
2022/12/11 13:31:13;;;;;;;29.67;11.27;;;;;;;;;;4972993;28;20028;-84
2022/12/11 13:33:45;;;;;;;29.58;13.38;;;;;;;;;;4974872;28;20019;-85
2022/12/11 13:36:14;;;;;;;29.60;12.95;;;;;;;;;;4974068;28;20047;-85
2022/12/11 13:38:48;;;;;;;28.60;12.57;;;;;;;;;;4975862;28;20031;-85
2022/12/11 13:41:15;;;;;;;24.42;11.52;;;;;;;;;;4978029;28;20027;-84
2022/12/11 13:43:41;;;;;;;27.77;11.32;;;;;;;;;;4963066;29;20027;-84
2022/12/11 13:46:19;;;;;;;26.20;12.00;;;;;;;;;;4973221;28;20405;-86
2022/12/11 13:48:59;;;;;;;27.25;12.10;;;;;;;;;;4972670;28;20042;-86
2022/12/11 13:51:28;;;;;;;27.85;11.38;;;;;;;;;;4973059;28;20062;-85
2022/12/11 13:54:04;;;;;;;30.90;12.43;;;;;;;;;;4974784;28;20066;-85
2022/12/11 13:56:30;;;;;;;30.08;11.50;;;;;;;;;;4976224;28;20038;-85
2022/12/11 13:58:56;;;;;;;22.33;9.68;;;;;;;;;;4972531;28;20501;-84
2022/12/11 14:01:22;;;;;;;27.55;11.23;;;;;;;;;;4971667;28;20039;-83
2022/12/11 14:04:02;;;;;;;25.20;10.38;;;;;;;;;;4957990;29;20055;-86
2022/12/11 14:06:29;;;;;;;28.27;11.57;;;;;;;;;;4948593;29;20043;-84
2022/12/11 14:08:57;;;;;;;25.25;10.63;;;;;;;;;;4953229;28;20046;-86
2022/12/11 14:11:29;;;;;;;24.55;10.25;;;;;;;;;;4973952;28;20031;-87
2022/12/11 14:13:57;;;;;;;27.50;11.10;;;;;;;;;;4974771;28;20633;-83
2022/12/11 14:16:25;;;;;;;29.67;12.40;;;;;;;;;;4975726;28;20078;-83
2022/12/11 14:18:51;;;;;;;31.10;11.80;;;;;;;;;;4962042;28;20027;-84
2022/12/11 14:21:19;;;;;;;25.83;11.75;;;;;;;;;;4969637;28;20058;-84
2022/12/11 14:23:54;;;;;;;29.00;11.95;;;;;;;;;;4967765;28;20043;-83
2022/12/11 14:26:22;;;;;;;32.72;12.60;;;;;;;;;;4949532;28;20043;-82
2022/12/11 14:28:49;;;;;;;30.70;12.43;;;;;;;;;;4968206;28;20034;-91
2022/12/11 14:31:40;;;;;;;27.75;11.73;;;1.60;99.90;;;;;;4998391;23;20415;-84
2022/12/11 21:37:09;;;;;;;45.47;16.98;;;;;;;;;;5000194;28;20054;-79
2022/12/11 21:39:35;;;;;;;51.17;18.83;;;;;;;;;;4999782;28;20027;-79
2022/12/11 21:42:01;;;;;;;51.85;18.85;;;;;;;;;;4989667;28;20042;-80
2022/12/11 21:44:27;;;;;;;50.50;18.15;;;;;;;;;;4983775;28;20029;-81
2022/12/11 21:46:53;;;;;;;50.70;16.75;;;;;;;;;;4979955;28;20034;-80
2022/12/11 21:49:19;;;;;;;47.63;17.25;;;;;;;;;;5012208;28;20030;-81
2022/12/11 21:51:45;;;;;;;49.75;18.25;;;;;;;;;;5020401;28;20022;-81
2022/12/11 21:54:15;;;;;;;47.83;17.52;;;1.20;99.90;;;;;;5011434;28;20062;-79
2022/12/11 21:56:42;;;;;;;45.70;15.63;;;;;;;;;;5009574;28;20030;-80
2022/12/11 21:59:08;;;;;;;49.05;17.15;;;;;;;;;;4989173;28;20015;-80
2022/12/11 22:01:37;;;;;;;41.92;17.48;;;1.00;99.90;;;;;;5011488;28;20034;-81
2022/12/11 22:04:04;;;;;;;48.63;17.67;;;1.00;99.90;;;;;;4992479;28;21905;-80
2022/12/11 22:06:30;;;;;;;44.58;17.38;;;;;;;;;;4985759;28;20065;-81
2022/12/11 22:08:56;;;;;;;49.97;17.95;;;;;;;;;;4994795;28;20041;-81
2022/12/11 22:11:24;;;;;;;51.80;17.50;;;;;;;;;;4995904;28;20088;-81
2022/12/11 22:13:50;;;;;;;40.10;15.02;;;;;;;;;;4996820;28;20030;-79
2022/12/11 22:16:17;;;;;;;43.63;16.25;;;;;;;;;;4995884;28;20096;-79
2022/12/11 22:18:43;;;;;;;42.28;14.93;;;;;;;;;;4998458;28;20069;-80
2022/12/11 22:21:08;;;;;;;45.10;16.02;;;1.10;99.90;;;;;;4977869;28;20069;-79
2022/12/11 22:23:36;;;;;;;47.85;18.08;;;1.10;99.90;;;;;;5002133;28;20129;-81
2022/12/11 22:26:02;;;;;;;45.35;17.08;;;;;;;;;;4999058;28;20050;-79
2022/12/11 22:28:28;;;;;;;48.03;17.48;;;;;;;;;;4980953;28;20617;-80
2022/12/11 22:30:54;;;;;;;49.78;16.90;;;;;;;;;;5001158;28;20050;-81
2022/12/11 22:33:22;;;;;;;47.92;16.92;;;;;;;;;;4984123;28;20064;-80
2022/12/11 22:35:57;;;;;;;44.72;17.05;;;0.90;99.90;;;;;;4981065;28;20038;-80
2022/12/11 22:38:24;;;;;;;48.08;17.88;;;0.90;99.90;;;;;;4999998;28;20037;-79
2022/12/11 22:40:51;;;;;;;49.90;19.27;;;;;;;;;;4999253;28;20050;-80
2022/12/11 22:43:16;;;;;;;45.65;17.15;;;2.00;99.90;;;;;;5000369;28;20042;-80
2022/12/11 22:45:42;;;;;;;52.72;18.17;;;;;;;;;;4983261;28;20036;-79
2022/12/11 22:48:09;;;;;;;48.55;17.42;;;1.00;99.90;;;;;;4982031;28;20035;-81
2022/12/11 22:50:37;;;;;;;51.85;16.95;;;1.00;99.90;;;;;;4993802;28;20102;-79
2022/12/11 22:53:03;;;;;;;51.22;17.77;;;0.90;99.90;;;;;;5001954;28;20026;-80
2022/12/11 22:55:29;;;;;;;53.60;19.08;;;0.80;99.90;;;;;;4990772;28;20030;-80
2022/12/11 22:57:55;;;;;;;55.88;18.90;;;0.80;99.90;;;;;;4991758;28;20077;-80
2022/12/11 23:00:21;;;;;;;55.90;20.05;;;0.80;99.90;;;;;;4978362;28;20045;-80
2022/12/11 23:02:47;;;;;;;51.92;18.35;;;;;;;;;;4977330;28;20043;-80
2022/12/11 23:05:13;;;;;;;51.92;18.73;;;;;;;;;;4992285;28;20536;-80
2022/12/11 23:07:40;;;;;;;56.75;18.48;;;0.70;99.90;;;;;;4994423;28;20027;-79
2022/12/11 23:10:07;;;;;;;50.38;17.77;;;0.70;99.90;;;;;;4978939;28;20034;-78
2022/12/11 23:12:33;;;;;;;46.83;18.70;;;;;;;;;;4975965;28;20025;-80
2022/12/11 23:14:59;;;;;;;54.80;20.77;;;0.70;99.90;;;;;;4994254;28;20053;-80
2022/12/11 23:17:25;;;;;;;48.65;18.35;;;0.70;99.90;;;;;;4977852;28;20038;-79
2022/12/11 23:19:50;;;;;;;57.00;19.35;;;0.70;99.90;;;;;;4988859;28;20035;-80
2022/12/11 23:22:17;;;;;;;47.53;19.65;;;;;;;;;;4963994;28;20165;-79
2022/12/11 23:24:43;;;;;;;50.58;19.10;;;;;;;;;;4984395;28;20049;-80
2022/12/11 23:27:09;;;;;;;52.92;20.13;;;0.70;99.90;;;;;;5004709;28;20026;-78
2022/12/11 23:29:35;;;;;;;51.05;18.63;;;;;;;;;;5011174;28;20062;-80
2022/12/11 23:32:01;;;;;;;46.33;17.88;;;0.80;99.90;;;;;;5007386;28;20034;-80
2022/12/11 23:34:27;;;;;;;48.35;18.50;;;;;;;;;;5007578;28;20045;-79
2022/12/11 23:36:53;;;;;;;49.05;17.92;;;;;;;;;;4993075;28;20038;-80
2022/12/11 23:39:19;;;;;;;49.75;17.85;;;0.80;99.90;;;;;;4984178;28;20618;-79
2022/12/11 23:41:45;;;;;;;50.83;18.63;;;0.80;99.90;;;;;;4983630;28;20042;-79
2022/12/11 23:44:11;;;;;;;43.78;16.10;;;3.50;99.90;;;;;;4992976;28;20105;-80
2022/12/11 23:46:37;;;;;;;52.42;19.23;;;0.80;99.90;;;;;;4993484;28;20039;-80
2022/12/11 23:49:03;;;;;;;51.28;16.98;;;;;;;;;;4992958;28;20034;-79
2022/12/11 23:51:29;;;;;;;49.45;17.08;;;;;;;;;;4978770;28;20030;-80
2022/12/11 23:53:55;;;;;;;47.95;17.42;;;;;;;;;;4994680;28;20030;-78
2022/12/11 23:56:27;;;;;;;44.80;15.32;;;0.80;99.90;;;;;;4995462;28;20026;-80
2022/12/11 23:58:53;;;;;;;49.03;17.65;;;;;;;;;;5002190;23;20051;-84
